createdAt,value
2023-06-03T00:00:55.880Z,7.80
2023-06-03T00:03:44.841Z,7.74
2023-06-03T00:06:13.386Z,7.70
2023-06-03T00:08:40.481Z,7.64
2023-06-03T00:11:07.309Z,7.58
2023-06-03T00:13:34.591Z,7.53
2023-06-03T00:16:01.217Z,7.48
2023-06-03T00:18:27.899Z,7.44
2023-06-03T00:20:55.816Z,7.39
2023-06-03T00:23:22.398Z,7.37
2023-06-03T00:25:48.888Z,7.33
2023-06-03T00:28:15.627Z,7.27
2023-06-03T00:30:42.210Z,7.24
2023-06-03T00:33:08.619Z,7.19
2023-06-03T00:35:36.770Z,7.13
2023-06-03T00:38:03.931Z,7.09
2023-06-03T00:40:32.182Z,7.02
2023-06-03T00:42:59.870Z,6.98
2023-06-03T00:45:26.305Z,6.95
2023-06-03T00:47:52.964Z,6.92
2023-06-03T00:50:19.403Z,6.89
2023-06-03T00:52:47.038Z,6.83
2023-06-03T00:55:13.626Z,6.76
2023-06-03T00:57:40.113Z,6.70
2023-06-03T01:00:07.397Z,6.64
2023-06-03T01:02:36.933Z,6.62
2023-06-03T01:05:08.493Z,6.62
2023-06-03T01:07:47.620Z,6.61
2023-06-03T01:10:46.734Z,6.58
2023-06-03T01:13:37.071Z,6.54
2023-06-03T01:16:05.515Z,6.51
2023-06-03T01:18:35.596Z,6.46
2023-06-03T01:21:03.766Z,6.43
2023-06-03T01:23:34.278Z,6.43
2023-06-03T01:26:04.969Z,6.42
2023-06-03T01:28:31.791Z,6.41
2023-06-03T01:31:02.063Z,6.36
2023-06-03T01:33:29.999Z,6.31
2023-06-03T01:35:58.883Z,6.28
2023-06-03T01:38:26.146Z,6.26
2023-06-03T01:40:53.557Z,6.21
2023-06-03T01:43:20.644Z,6.13
2023-06-03T01:45:47.306Z,6.08
2023-06-03T01:48:14.626Z,6.08
2023-06-03T01:50:44.649Z,6.08
2023-06-03T01:53:12.733Z,6.09
2023-06-03T01:55:39.510Z,6.07
2023-06-03T01:58:06.073Z,6.04
2023-06-03T02:00:32.703Z,5.98
2023-06-03T02:02:59.220Z,5.90
2023-06-03T02:05:25.772Z,5.85
2023-06-03T02:07:52.112Z,5.86
2023-06-03T02:10:18.689Z,5.86
2023-06-03T02:12:44.993Z,5.83
2023-06-03T02:15:11.395Z,5.83
2023-06-03T02:17:37.822Z,5.83
2023-06-03T02:20:08.931Z,5.82
2023-06-03T02:22:35.817Z,5.79
2023-06-03T02:25:05.966Z,5.79
2023-06-03T02:27:32.356Z,5.79
2023-06-03T02:29:58.859Z,5.80
2023-06-03T02:32:25.252Z,5.82
2023-06-03T02:34:52.108Z,5.86
2023-06-03T02:37:18.470Z,5.91
2023-06-03T02:39:45.312Z,5.94
2023-06-03T02:42:12.333Z,5.96
2023-06-03T02:44:39.286Z,5.96
2023-06-03T02:47:06.429Z,5.99
2023-06-03T02:49:33.989Z,6.03
2023-06-03T02:52:00.934Z,6.06
2023-06-03T02:54:27.419Z,6.09
2023-06-03T02:56:53.806Z,6.09
2023-06-03T02:59:20.238Z,6.11
2023-06-03T03:01:46.806Z,6.16
2023-06-03T03:04:13.235Z,6.21
2023-06-03T03:06:41.128Z,6.26
2023-06-03T03:09:08.146Z,6.30
2023-06-03T03:11:34.865Z,6.36
2023-06-03T03:14:02.608Z,6.41
2023-06-03T03:16:29.008Z,6.42
2023-06-03T03:18:55.647Z,6.45
2023-06-03T03:21:22.214Z,6.51
2023-06-03T03:23:51.767Z,6.57
2023-06-03T03:26:22.137Z,6.64
2023-06-03T03:28:49.461Z,6.69
2023-06-03T03:31:16.873Z,6.74
2023-06-03T03:33:43.387Z,6.80
2023-06-03T03:36:14.127Z,6.84
2023-06-03T03:38:41.567Z,6.87
2023-06-03T03:41:08.112Z,6.93
2023-06-03T03:43:35.415Z,7.02
2023-06-03T03:46:02.224Z,7.09
2023-06-03T03:48:30.687Z,7.18
2023-06-03T03:50:57.249Z,7.25
2023-06-03T03:53:29.955Z,7.29
2023-06-03T03:55:57.880Z,7.37
2023-06-03T03:58:41.593Z,7.40
2023-06-03T04:01:24.889Z,7.45
2023-06-03T04:03:53.504Z,7.55
2023-06-03T04:06:33.208Z,7.62
2023-06-03T04:09:01.141Z,7.69
2023-06-03T04:11:29.641Z,7.77
2023-06-03T04:13:57.828Z,7.83
2023-06-03T04:16:45.960Z,7.88
2023-06-03T04:19:31.275Z,7.91
2023-06-03T04:21:58.686Z,7.97
2023-06-03T04:24:26.254Z,8.08
2023-06-03T04:26:53.885Z,8.17
2023-06-03T04:29:20.538Z,8.20
2023-06-03T04:31:46.925Z,8.26
2023-06-03T04:34:13.706Z,8.34
2023-06-03T04:36:40.066Z,8.42
2023-06-03T04:39:09.029Z,8.47
2023-06-03T04:41:39.223Z,8.53
2023-06-03T04:44:05.682Z,8.61
2023-06-03T04:46:32.570Z,8.66
2023-06-03T04:49:02.829Z,8.73
2023-06-03T04:51:35.744Z,8.82
2023-06-03T04:54:04.160Z,8.96
2023-06-03T04:56:31.204Z,9.10
2023-06-03T04:59:01.131Z,9.22
2023-06-03T05:01:28.476Z,9.30
2023-06-03T05:03:56.382Z,9.37
2023-06-03T05:06:24.058Z,9.42
2023-06-03T05:08:51.858Z,9.52
2023-06-03T05:11:19.474Z,9.60
2023-06-03T05:13:46.475Z,9.67
2023-06-03T05:16:13.567Z,9.74
2023-06-03T05:18:40.760Z,9.83
2023-06-03T05:21:08.219Z,9.96
2023-06-03T05:23:35.060Z,10.02
2023-06-03T05:26:01.580Z,10.11
2023-06-03T05:28:28.144Z,10.23
2023-06-03T05:30:54.888Z,10.34
2023-06-03T05:33:29.387Z,10.46
2023-06-03T05:35:56.743Z,10.63
2023-06-03T05:38:24.084Z,10.78
2023-06-03T05:40:51.665Z,10.91
2023-06-03T05:43:19.021Z,11.06
2023-06-03T05:45:46.889Z,11.19
2023-06-03T05:48:13.856Z,11.36
2023-06-03T05:50:48.969Z,11.58
2023-06-03T05:53:15.568Z,11.80
2023-06-03T05:55:43.344Z,12.07
2023-06-03T05:58:09.698Z,12.62
2023-06-03T06:00:37.241Z,13.41
2023-06-03T06:03:03.764Z,14.42
2023-06-03T06:05:30.231Z,15.15
2023-06-03T06:07:56.966Z,15.74
2023-06-03T06:10:23.485Z,16.30
2023-06-03T06:12:49.878Z,16.83
2023-06-03T06:15:16.260Z,17.26
2023-06-03T06:17:45.991Z,17.26
2023-06-03T06:20:12.852Z,17.56
2023-06-03T06:22:39.816Z,17.95
2023-06-03T06:25:07.543Z,18.15
2023-06-03T06:27:34.977Z,18.31
2023-06-03T06:30:03.327Z,18.40
2023-06-03T06:39:36.251Z,19.12
2023-06-03T06:42:13.043Z,19.11
2023-06-03T06:44:49.323Z,19.22
2023-06-03T06:47:25.593Z,19.36
2023-06-03T06:50:00.488Z,19.46
2023-06-03T06:52:30.921Z,19.36
2023-06-03T06:55:00.382Z,19.56
2023-06-03T06:57:30.032Z,19.67
2023-06-03T06:59:57.922Z,19.74
2023-06-03T07:02:26.792Z,19.88
2023-06-03T07:04:54.694Z,19.92
2023-06-03T07:07:22.445Z,19.69
2023-06-03T07:09:50.675Z,19.72
2023-06-03T07:12:18.614Z,20.02
2023-06-03T07:14:46.535Z,20.23
2023-06-03T07:17:15.572Z,20.43
2023-06-03T07:19:43.310Z,20.80
2023-06-03T07:22:11.095Z,20.83
2023-06-03T07:24:40.113Z,21.12
2023-06-03T07:27:09.087Z,21.50
2023-06-03T07:29:39.587Z,21.75
2023-06-03T07:32:09.221Z,21.94
2023-06-03T07:34:38.136Z,21.90
2023-06-03T07:37:12.921Z,21.93
2023-06-03T07:39:42.452Z,22.01
2023-06-03T07:42:23.097Z,22.03
2023-06-03T07:44:51.165Z,22.30
2023-06-03T07:47:19.114Z,22.43
2023-06-03T07:49:49.378Z,22.58
2023-06-03T07:52:19.936Z,22.74
2023-06-03T07:54:48.487Z,22.68
2023-06-03T07:57:17.154Z,22.43
2023-06-03T07:59:56.447Z,22.62
2023-06-03T08:02:24.847Z,22.73
2023-06-03T08:04:57.421Z,22.64
2023-06-03T08:07:26.421Z,22.23
2023-06-03T08:09:54.442Z,22.10
2023-06-03T08:12:32.655Z,22.34
2023-06-03T08:15:02.539Z,22.95
2023-06-03T08:17:42.228Z,23.10
2023-06-03T08:20:11.462Z,22.95
2023-06-03T08:22:46.200Z,22.43
2023-06-03T08:25:14.576Z,22.15
2023-06-03T08:27:42.475Z,22.27
2023-06-03T08:30:14.151Z,22.20
2023-06-03T08:32:43.253Z,22.41
2023-06-03T08:35:17.929Z,22.76
2023-06-03T08:37:46.134Z,23.07
2023-06-03T08:40:18.192Z,22.41
2023-06-03T08:42:48.782Z,22.42
2023-06-03T08:45:19.186Z,22.65
2023-06-03T08:48:02.115Z,22.70
2023-06-03T08:50:30.086Z,23.56
2023-06-03T08:52:59.345Z,23.94
2023-06-03T08:55:27.952Z,23.74
2023-06-03T08:58:03.594Z,23.34
2023-06-03T09:00:31.867Z,23.38
2023-06-03T09:03:00.258Z,23.85
2023-06-03T09:05:29.177Z,23.89
2023-06-03T09:07:57.873Z,23.23
2023-06-03T09:10:27.407Z,22.87
2023-06-03T09:12:58.829Z,22.59
2023-06-03T09:15:27.456Z,22.74
2023-06-03T09:17:55.288Z,23.43
2023-06-03T09:20:24.915Z,23.71
2023-06-03T09:22:53.780Z,23.98
2023-06-03T09:25:21.600Z,24.70
2023-06-03T09:27:49.558Z,25.56
2023-06-03T09:30:20.433Z,25.87
2023-06-03T09:32:48.287Z,25.51
2023-06-03T09:35:16.450Z,24.96
2023-06-03T09:37:59.456Z,24.59
2023-06-03T09:40:32.631Z,23.99
2023-06-03T09:43:00.930Z,24.20
2023-06-03T09:45:30.661Z,24.55
2023-06-03T09:47:59.743Z,24.71
2023-06-03T09:50:30.111Z,25.64
2023-06-03T09:52:58.962Z,26.32
2023-06-03T09:55:37.665Z,26.51
2023-06-03T09:58:10.013Z,26.96
2023-06-03T10:01:00.397Z,27.51
2023-06-03T10:04:16.318Z,28.37
2023-06-03T10:07:15.834Z,28.34
2023-06-03T10:09:51.176Z,28.06
2023-06-03T10:12:34.117Z,28.03
2023-06-03T10:15:04.866Z,28.29
2023-06-03T10:17:47.681Z,28.67
2023-06-03T10:20:34.425Z,28.85
2023-06-03T10:23:06.528Z,29.17
2023-06-03T10:25:58.343Z,29.66
2023-06-03T10:28:38.364Z,30.33
2023-06-03T10:31:14.322Z,30.80
2023-06-03T10:33:42.685Z,30.10
2023-06-03T10:36:13.221Z,29.06
2023-06-03T10:38:41.778Z,28.86
2023-06-03T10:41:12.201Z,28.89
2023-06-03T10:43:43.185Z,28.68
2023-06-03T10:46:13.389Z,28.76
2023-06-03T10:48:45.425Z,28.82
2023-06-03T10:51:48.149Z,29.41
2023-06-03T10:54:31.430Z,30.02
2023-06-03T10:57:07.823Z,29.55
2023-06-03T10:59:44.684Z,28.20
2023-06-03T11:02:13.699Z,28.19
2023-06-03T11:04:42.020Z,28.85
2023-06-03T11:07:42.465Z,29.50
2023-06-03T11:10:37.013Z,30.45
2023-06-03T11:21:52.972Z,30.50
2023-06-03T11:24:39.443Z,31.30
2023-06-03T11:27:13.519Z,31.37
2023-06-03T11:29:47.132Z,30.46
2023-06-03T11:32:16.212Z,30.39
2023-06-03T11:34:48.755Z,31.24
2023-06-03T11:37:21.048Z,32.01
2023-06-03T11:40:08.682Z,32.51
2023-06-03T11:42:45.786Z,32.99
2023-06-03T11:45:22.762Z,33.20
2023-06-03T11:47:51.045Z,32.94
2023-06-03T11:50:20.548Z,32.47
2023-06-03T11:52:50.666Z,32.40
2023-06-03T11:55:25.497Z,32.42
2023-06-03T11:57:53.585Z,32.45
2023-06-03T12:00:21.782Z,32.41
2023-06-03T12:02:49.853Z,32.00
2023-06-03T12:05:19.012Z,32.05
2023-06-03T12:08:05.935Z,31.96
2023-06-03T12:10:42.048Z,32.31
2023-06-03T12:13:12.522Z,32.60
2023-06-03T12:15:50.007Z,33.09
2023-06-03T12:18:17.847Z,33.71
2023-06-03T12:20:48.986Z,33.96
2023-06-03T12:23:21.900Z,34.09
2023-06-03T12:25:56.657Z,33.93
2023-06-03T12:28:26.093Z,34.23
2023-06-03T12:30:53.990Z,34.37
2023-06-03T12:33:21.868Z,33.61
2023-06-03T12:35:57.446Z,33.35
2023-06-03T12:38:25.645Z,33.60
2023-06-03T12:41:09.247Z,33.84
2023-06-03T12:43:37.125Z,33.15
2023-06-03T12:46:18.609Z,32.75
2023-06-03T12:48:46.475Z,32.31
2023-06-03T12:51:34.656Z,32.48
2023-06-03T12:54:02.711Z,32.95
2023-06-03T12:56:30.529Z,32.77
2023-06-03T12:58:59.032Z,32.76
2023-06-03T13:01:27.809Z,33.18
2023-06-03T13:03:56.704Z,33.68
2023-06-03T13:06:25.513Z,34.00
2023-06-03T13:08:53.679Z,33.38
2023-06-03T13:11:22.874Z,33.33
2023-06-03T13:13:50.901Z,33.78
2023-06-03T13:16:19.009Z,33.69
2023-06-03T13:18:46.822Z,33.58
2023-06-03T13:21:14.573Z,33.51
2023-06-03T13:23:42.608Z,33.61
2023-06-03T13:26:10.490Z,34.05
2023-06-03T13:28:38.772Z,34.20
2023-06-03T13:31:07.071Z,34.39
2023-06-03T13:33:35.598Z,34.10
2023-06-03T13:36:03.848Z,33.29
2023-06-03T13:38:37.363Z,32.30
2023-06-03T13:41:07.073Z,31.97
2023-06-03T13:43:36.192Z,32.27
2023-06-03T13:46:04.095Z,32.36
2023-06-03T13:48:32.995Z,31.94
2023-06-03T13:51:02.371Z,31.49
2023-06-03T13:53:30.398Z,31.37
2023-06-03T13:55:58.848Z,31.54
2023-06-03T13:58:27.062Z,31.77
2023-06-03T14:00:54.816Z,32.15
2023-06-03T14:03:22.655Z,32.46
2023-06-03T14:05:51.253Z,32.65
2023-06-03T14:08:20.795Z,32.60
2023-06-03T14:10:48.902Z,32.60
2023-06-03T14:13:16.812Z,32.72
2023-06-03T14:15:44.711Z,32.39
2023-06-03T14:18:12.459Z,32.55
2023-06-03T14:20:40.319Z,33.08
2023-06-03T14:23:08.482Z,33.51
2023-06-03T14:25:36.374Z,33.69
2023-06-03T14:28:04.333Z,33.50
2023-06-03T14:30:56.176Z,33.43
2023-06-03T14:33:30.228Z,33.39
2023-06-03T14:35:58.839Z,33.01
2023-06-03T14:38:34.065Z,32.67
2023-06-03T14:41:07.578Z,32.73
2023-06-03T14:43:42.215Z,33.10
2023-06-03T14:46:12.631Z,33.59
2023-06-03T14:48:43.127Z,33.85
2023-06-03T14:51:13.166Z,34.17
2023-06-03T14:53:47.137Z,34.79
2023-06-03T14:56:18.144Z,35.31
2023-06-03T14:58:51.826Z,35.67
2023-06-03T15:01:22.163Z,35.99
2023-06-03T15:03:54.666Z,35.81
2023-06-03T15:06:26.152Z,35.67
2023-06-03T15:09:16.612Z,36.09
2023-06-03T15:11:49.871Z,36.11
2023-06-03T15:14:37.168Z,35.99
2023-06-03T15:17:06.033Z,35.90
2023-06-03T15:19:34.191Z,35.74
2023-06-03T15:25:29.187Z,35.87
2023-06-03T15:27:57.496Z,35.96
2023-06-03T15:30:26.035Z,35.87
2023-06-03T15:32:54.435Z,35.63
2023-06-03T15:35:22.731Z,34.72
2023-06-03T15:44:55.933Z,33.86
2023-06-03T15:47:25.719Z,32.57
2023-06-03T15:49:59.475Z,30.85
2023-06-03T15:52:27.963Z,29.70
2023-06-03T15:54:57.390Z,28.81
2023-06-03T15:57:25.804Z,27.89
2023-06-03T15:59:54.036Z,27.29
2023-06-03T16:02:22.538Z,26.68
2023-06-03T16:04:51.396Z,25.83
2023-06-03T16:07:19.793Z,25.51
2023-06-03T16:09:48.271Z,25.35
2023-06-03T16:12:16.960Z,25.02
2023-06-03T16:14:45.629Z,24.68
2023-06-03T16:17:13.589Z,24.48
2023-06-03T16:19:42.726Z,24.27
2023-06-03T16:22:10.931Z,23.98
2023-06-03T16:24:39.084Z,23.85
2023-06-03T16:27:08.471Z,23.71
2023-06-03T16:29:37.026Z,23.50
2023-06-03T16:39:12.807Z,23.08
2023-06-03T16:41:43.355Z,23.05
2023-06-03T16:44:11.493Z,22.97
2023-06-03T16:46:39.232Z,22.81
2023-06-03T16:49:07.403Z,22.51
2023-06-03T16:51:35.849Z,22.33
2023-06-03T16:54:03.993Z,22.17
2023-06-03T16:56:32.294Z,22.06
2023-06-03T16:59:00.778Z,21.98
2023-06-03T17:01:28.537Z,21.88
2023-06-03T17:03:58.433Z,21.76
2023-06-03T17:06:26.358Z,21.63
2023-06-03T17:08:54.811Z,21.51
2023-06-03T17:11:23.206Z,21.36
2023-06-03T17:13:51.274Z,21.23
2023-06-03T17:16:19.020Z,21.14
2023-06-03T17:18:47.059Z,21.06
2023-06-03T17:21:15.049Z,20.88
2023-06-03T17:23:42.842Z,20.73
2023-06-03T17:26:10.598Z,20.65
2023-06-03T17:28:38.795Z,20.56
2023-06-03T17:31:06.870Z,20.46
2023-06-03T17:33:35.021Z,20.37
2023-06-03T17:36:02.865Z,20.31
2023-06-03T17:38:30.833Z,20.21
2023-06-03T17:40:58.611Z,20.11
2023-06-03T17:43:26.839Z,20.03
2023-06-03T17:45:54.558Z,19.99
2023-06-03T17:48:22.647Z,19.90
2023-06-03T17:50:50.701Z,19.85
2023-06-03T17:53:18.500Z,19.72
2023-06-03T17:55:46.558Z,19.59
2023-06-03T17:58:14.745Z,19.45
2023-06-03T18:00:42.593Z,19.33
2023-06-03T18:03:11.406Z,19.21
2023-06-03T18:05:39.719Z,19.12
2023-06-03T18:08:07.643Z,19.03
2023-06-03T18:10:35.656Z,18.93
2023-06-03T18:13:06.348Z,18.84
2023-06-03T18:15:36.309Z,18.74
2023-06-03T18:18:04.546Z,18.63
2023-06-03T18:20:32.558Z,18.49
2023-06-03T18:23:00.634Z,18.33
2023-06-03T18:25:28.414Z,18.16
2023-06-03T18:27:56.497Z,17.99
2023-06-03T18:30:24.269Z,17.83
2023-06-03T18:32:52.138Z,17.67
2023-06-03T18:35:20.487Z,17.50
2023-06-03T18:37:49.460Z,17.36
2023-06-03T18:40:17.682Z,17.25
2023-06-03T18:42:45.871Z,17.15
2023-06-03T18:45:14.754Z,17.02
2023-06-03T18:47:44.947Z,16.88
2023-06-03T18:50:13.391Z,16.74
2023-06-03T18:52:41.304Z,16.63
2023-06-03T18:55:09.861Z,16.54
2023-06-03T18:57:37.723Z,16.49
2023-06-03T19:00:07.656Z,16.42
2023-06-03T19:02:36.317Z,16.36
2023-06-03T19:05:10.298Z,16.22
2023-06-03T19:07:38.464Z,16.12
2023-06-03T19:10:07.824Z,16.04
2023-06-03T19:12:36.605Z,16.02
2023-06-03T19:15:05.554Z,15.99
2023-06-03T19:17:38.621Z,15.88
2023-06-03T19:20:08.573Z,15.80
2023-06-03T19:22:40.635Z,15.72
2023-06-03T19:25:10.178Z,15.69
2023-06-03T19:27:39.535Z,15.62
2023-06-03T19:30:08.553Z,15.49
2023-06-03T19:32:37.918Z,15.38
2023-06-03T19:35:08.629Z,15.33
2023-06-03T19:38:31.405Z,15.27
2023-06-03T19:40:59.274Z,15.16
2023-06-03T19:43:27.309Z,15.07
2023-06-03T19:45:55.295Z,14.97
2023-06-03T19:48:24.592Z,14.90
2023-06-03T19:50:55.002Z,14.84
2023-06-03T19:53:23.750Z,14.75
2023-06-03T19:55:51.738Z,14.67
2023-06-03T19:58:19.517Z,14.63
2023-06-03T20:00:48.337Z,14.56
2023-06-03T20:03:17.059Z,14.50
2023-06-03T20:05:45.339Z,14.42
2023-06-03T20:08:13.336Z,14.34
2023-06-03T20:10:42.201Z,14.28
2023-06-03T20:13:21.307Z,14.20
2023-06-03T20:15:57.849Z,14.09
2023-06-03T20:18:26.793Z,14.06
2023-06-03T20:20:54.863Z,13.98
2023-06-03T20:23:22.984Z,13.90
2023-06-03T20:25:51.073Z,13.84
2023-06-03T20:28:19.066Z,13.78
2023-06-03T20:30:47.123Z,13.74
2023-06-03T20:33:15.055Z,13.70
2023-06-03T20:35:43.576Z,13.66
2023-06-03T20:38:13.520Z,13.62
2023-06-03T20:40:42.686Z,13.63
2023-06-03T20:43:10.888Z,13.62
2023-06-03T20:45:43.101Z,13.56
2023-06-03T20:48:12.271Z,13.52
2023-06-03T20:50:40.508Z,13.46
2023-06-03T20:53:10.714Z,13.40
2023-06-03T20:59:16.469Z,13.27
2023-06-03T21:01:44.212Z,13.15
2023-06-03T21:04:12.494Z,13.03
2023-06-03T21:06:42.550Z,12.90
2023-06-03T21:09:11.791Z,12.81
2023-06-03T21:11:39.616Z,12.75
2023-06-03T21:14:07.410Z,12.68
2023-06-03T21:16:35.881Z,12.61
2023-06-03T21:19:03.866Z,12.53
2023-06-03T21:21:31.643Z,12.43
2023-06-03T21:23:59.899Z,12.33
2023-06-03T21:26:27.884Z,12.25
2023-06-03T21:28:55.774Z,12.17
2023-06-03T21:31:23.641Z,12.09
2023-06-03T21:33:51.526Z,12.02
2023-06-03T21:36:19.372Z,11.97
2023-06-03T21:38:47.023Z,11.93
2023-06-03T21:41:14.712Z,11.86
2023-06-03T21:43:42.674Z,11.78
2023-06-03T21:46:11.106Z,11.70
2023-06-03T21:48:40.185Z,11.65
2023-06-03T21:51:08.049Z,11.62
2023-06-03T21:53:35.993Z,11.56
2023-06-03T21:56:03.876Z,11.50
2023-06-03T21:58:31.812Z,11.45
2023-06-03T22:00:59.606Z,11.35
2023-06-03T22:03:27.353Z,11.27
2023-06-03T22:05:55.501Z,11.22
2023-06-03T22:08:23.240Z,11.12
2023-06-03T22:10:51.648Z,11.04
2023-06-03T22:13:19.447Z,11.00
2023-06-03T22:15:47.268Z,10.97
2023-06-03T22:18:15.985Z,10.93
2023-06-03T22:20:43.910Z,10.88
2023-06-03T22:23:11.801Z,10.83
2023-06-03T22:25:39.532Z,10.78
2023-06-03T22:28:07.500Z,10.71
2023-06-03T22:30:35.302Z,10.61
2023-06-03T22:33:03.915Z,10.53
2023-06-03T22:35:32.129Z,10.45
2023-06-03T22:38:00.676Z,10.37
2023-06-03T22:40:28.480Z,10.32
2023-06-03T22:42:56.205Z,10.21
2023-06-03T22:45:23.951Z,10.08
2023-06-03T22:47:52.295Z,10.02
2023-06-03T22:50:20.046Z,9.97
2023-06-03T22:52:47.823Z,9.87
2023-06-03T22:55:15.716Z,9.79
2023-06-03T22:57:43.527Z,9.79
2023-06-03T23:00:12.369Z,9.80
2023-06-03T23:02:40.399Z,9.78
2023-06-03T23:05:08.624Z,9.78
2023-06-03T23:07:36.589Z,9.78
2023-06-03T23:10:04.692Z,9.77
2023-06-03T23:12:32.562Z,9.74
2023-06-03T23:15:00.422Z,9.69
2023-06-03T23:17:28.253Z,9.65
2023-06-03T23:19:56.004Z,9.62
2023-06-03T23:22:23.735Z,9.61
2023-06-03T23:24:51.517Z,9.57
2023-06-03T23:27:19.333Z,9.51
2023-06-03T23:29:47.389Z,9.44
2023-06-03T23:32:15.116Z,9.38
2023-06-03T23:34:42.890Z,9.34
2023-06-03T23:37:10.818Z,9.31
2023-06-03T23:39:38.506Z,9.27
2023-06-03T23:42:07.982Z,9.20
2023-06-03T23:44:35.733Z,9.09
2023-06-03T23:47:03.641Z,9.04
2023-06-03T23:49:31.309Z,9.02
2023-06-03T23:51:59.114Z,8.96
2023-06-03T23:54:27.032Z,8.90
2023-06-03T23:56:54.850Z,8.85
2023-06-03T23:59:22.517Z,8.83
